Time,TemperatureF,DewpointF,PressureIn,WindDirection,WindDirectionDegrees,WindSpeedMPH,WindSpeedGustMPH,Humidity,HourlyPrecipIn,Conditions,Clouds,dailyrainin,SolarRadiationWatts/m^2,SoftwareType,DateUTC
2013-12-10 00:02:00,42.0,42.0,30.30,SW,236,2.0,4.0,99,0.00,,,0.43,0.000000,,2013-12-10 05:02:00,
2013-12-10 00:12:00,42.0,42.0,30.30,SW,236,2.0,4.0,99,0.00,,,0.43,0.000000,,2013-12-10 05:12:00,
2013-12-10 00:43:00,43.0,43.0,30.28,NW,309,1.0,4.0,99,0.00,,,0.43,0.000000,,2013-12-10 05:43:00,
2013-12-10 00:53:00,43.0,43.0,30.28,NW,309,1.0,4.0,99,0.00,,,0.43,0.000000,,2013-12-10 05:53:00,
2013-12-10 01:02:00,43.0,43.0,30.28,NW,309,1.0,4.0,99,0.00,,,0.43,0.000000,,2013-12-10 06:02:00,
2013-12-10 01:12:00,43.0,43.0,30.28,NW,309,1.0,4.0,99,0.00,,,0.43,0.000000,,2013-12-10 06:12:00,
2013-12-10 01:42:00,42.0,42.0,30.24,ENE,75,2.0,3.0,99,0.00,,,0.43,0.000000,,2013-12-10 06:42:00,
2013-12-10 01:53:00,42.0,42.0,30.24,ENE,75,2.0,3.0,99,0.00,,,0.43,0.000000,,2013-12-10 06:53:00,
2013-12-10 02:02:00,42.0,42.0,30.24,ENE,75,2.0,3.0,99,0.00,,,0.43,0.000000,,2013-12-10 07:02:00,
2013-12-10 02:11:00,42.0,42.0,30.24,ENE,75,2.0,3.0,99,0.00,,,0.43,0.000000,,2013-12-10 07:11:00,
2013-12-10 02:42:00,42.0,42.0,30.23,NNW,327,3.0,6.0,99,0.00,,,0.43,0.000000,,2013-12-10 07:42:00,
2013-12-10 02:52:00,42.0,42.0,30.23,NNW,327,3.0,6.0,99,0.00,,,0.43,0.000000,,2013-12-10 07:52:00,
2013-12-10 03:02:00,42.0,42.0,30.23,NNW,327,3.0,6.0,99,0.00,,,0.43,0.000000,,2013-12-10 08:02:00,
2013-12-10 03:12:00,42.0,42.0,30.23,NNW,327,3.0,6.0,99,0.00,,,0.43,0.000000,,2013-12-10 08:12:00,
2013-12-10 03:43:00,44.0,44.0,30.21,ESE,115,2.0,4.0,99,0.00,,,0.43,0.000000,,2013-12-10 08:43:00,
2013-12-10 03:52:00,44.0,44.0,30.21,ESE,115,2.0,4.0,99,0.00,,,0.43,0.000000,,2013-12-10 08:52:00,
2013-12-10 04:02:00,44.0,44.0,30.21,ESE,115,2.0,4.0,99,0.00,,,0.43,0.000000,,2013-12-10 09:02:00,
2013-12-10 04:11:00,44.0,44.0,30.21,ESE,115,2.0,4.0,99,0.00,,,0.43,0.000000,,2013-12-10 09:11:00,
2013-12-10 04:44:00,43.0,43.0,30.19,NNW,332,3.0,5.0,99,0.00,,,0.42,0.000000,,2013-12-10 09:44:00,
2013-12-10 04:54:00,43.0,43.0,30.19,NNW,332,3.0,5.0,99,0.00,,,0.42,0.000000,,2013-12-10 09:54:00,
2013-12-10 05:03:00,43.0,43.0,30.19,NNW,332,3.0,5.0,99,0.00,,,0.42,0.000000,,2013-12-10 10:03:00,
2013-12-10 05:12:00,43.0,43.0,30.19,NNW,332,3.0,5.0,99,0.00,,,0.42,0.000000,,2013-12-10 10:12:00,
2013-12-10 05:43:00,43.0,43.0,30.20,NNW,345,3.0,10.0,99,0.00,,,0.42,0.000000,,2013-12-10 10:43:00,
2013-12-10 05:53:00,43.0,43.0,30.20,NNW,345,3.0,10.0,99,0.00,,,0.42,0.000000,,2013-12-10 10:53:00,
2013-12-10 06:02:00,43.0,43.0,30.20,NNW,345,3.0,10.0,99,0.00,,,0.42,0.000000,,2013-12-10 11:02:00,
2013-12-10 06:12:00,43.0,43.0,30.20,NNW,345,3.0,10.0,99,0.00,,,0.42,0.000000,,2013-12-10 11:12:00,
2013-12-10 06:43:00,42.0,42.0,30.17,NE,55,4.0,13.0,99,0.01,,,0.43,0.000000,,2013-12-10 11:43:00,
2013-12-10 06:53:00,42.0,42.0,30.17,NE,55,4.0,13.0,99,0.01,,,0.43,0.000000,,2013-12-10 11:53:00,
2013-12-10 07:02:00,42.0,42.0,30.17,NE,55,4.0,13.0,99,0.01,,,0.43,0.000000,,2013-12-10 12:02:00,
2013-12-10 07:12:00,42.0,42.0,30.17,NE,55,4.0,13.0,99,0.01,,,0.43,0.000000,,2013-12-10 12:12:00,
2013-12-10 10:44:00,44.0,44.0,30.22,East,80,6.0,13.0,99,-99.99,,,0.59,46.000000,,2013-12-10 15:44:00,
2013-12-10 10:53:00,44.0,44.0,30.22,East,80,6.0,13.0,99,-99.99,,,0.59,46.000000,,2013-12-10 15:53:00,
2013-12-10 11:04:00,44.0,44.0,30.22,East,80,6.0,13.0,99,-99.99,,,0.59,46.000000,,2013-12-10 16:04:00,
2013-12-10 11:13:00,44.0,44.0,30.22,East,80,6.0,13.0,99,-99.99,,,0.59,46.000000,,2013-12-10 16:13:00,
2013-12-10 11:43:00,46.0,45.0,30.25,NE,35,4.0,14.0,98,0.00,,,0.58,62.000000,,2013-12-10 16:43:00,
2013-12-10 11:53:00,46.0,45.0,30.25,NE,35,4.0,14.0,98,0.00,,,0.58,62.000000,,2013-12-10 16:53:00,
2013-12-10 12:03:00,46.0,45.0,30.25,NE,35,4.0,14.0,98,0.00,,,0.58,62.000000,,2013-12-10 17:03:00,
2013-12-10 12:13:00,46.0,45.0,30.25,NE,35,4.0,14.0,98,0.00,,,0.58,62.000000,,2013-12-10 17:13:00,
2013-12-10 12:43:00,47.0,45.0,30.27,NNW,348,5.0,10.0,91,0.00,,,0.58,92.000000,,2013-12-10 17:43:00,
2013-12-10 12:52:00,47.0,45.0,30.27,NNW,348,5.0,10.0,91,0.00,,,0.58,92.000000,,2013-12-10 17:52:00,
2013-12-10 13:02:00,47.0,45.0,30.27,NNW,348,5.0,10.0,91,0.00,,,0.58,92.000000,,2013-12-10 18:02:00,
2013-12-10 13:11:00,47.0,45.0,30.27,NNW,348,5.0,10.0,91,0.00,,,0.58,92.000000,,2013-12-10 18:11:00,
2013-12-10 13:42:00,46.0,43.0,30.29,NNW,334,5.0,11.0,89,0.00,,,0.54,113.000000,,2013-12-10 18:42:00,
2013-12-10 13:53:00,46.0,43.0,30.29,NNW,334,5.0,11.0,89,0.00,,,0.54,113.000000,,2013-12-10 18:53:00,
2013-12-10 14:02:00,46.0,43.0,30.29,NNW,334,5.0,11.0,89,0.00,,,0.54,113.000000,,2013-12-10 19:02:00,
2013-12-10 14:11:00,46.0,43.0,30.29,NNW,334,5.0,11.0,89,0.00,,,0.54,113.000000,,2013-12-10 19:11:00,
2013-12-10 14:42:00,51.0,45.0,30.30,NNW,328,3.0,12.0,80,0.00,,,0.51,93.000000,,2013-12-10 19:42:00,
2013-12-10 14:52:00,51.0,45.0,30.30,NNW,328,3.0,12.0,80,0.00,,,0.51,93.000000,,2013-12-10 19:52:00,
2013-12-10 15:02:00,51.0,45.0,30.30,NNW,328,3.0,12.0,80,0.00,,,0.51,93.000000,,2013-12-10 20:02:00,
2013-12-10 15:11:00,51.0,45.0,30.30,NNW,328,3.0,12.0,80,0.00,,,0.51,93.000000,,2013-12-10 20:11:00,
2013-12-10 15:53:00,53.0,36.0,30.32,NW,307,12.0,22.0,52,0.00,,,0.47,385.000000,,2013-12-10 20:53:00,
2013-12-10 16:02:00,53.0,36.0,30.32,NW,307,12.0,22.0,52,0.00,,,0.47,385.000000,,2013-12-10 21:02:00,
2013-12-10 16:12:00,53.0,36.0,30.32,NW,307,12.0,22.0,52,0.00,,,0.47,385.000000,,2013-12-10 21:12:00,
2013-12-10 16:43:00,51.0,31.0,30.37,WNW,282,8.0,28.0,47,0.00,,,0.30,248.000000,,2013-12-10 21:43:00,
2013-12-10 16:54:00,51.0,31.0,30.37,WNW,282,8.0,28.0,47,0.00,,,0.30,248.000000,,2013-12-10 21:54:00,
2013-12-10 17:04:00,51.0,31.0,30.37,WNW,282,8.0,28.0,47,0.00,,,0.30,248.000000,,2013-12-10 22:04:00,
2013-12-10 17:13:00,51.0,31.0,30.37,WNW,282,8.0,28.0,47,0.00,,,0.30,248.000000,,2013-12-10 22:13:00,
2013-12-10 17:43:00,44.0,26.0,30.41,NW,322,8.0,17.0,49,0.00,,,-99.99,72.000000,,2013-12-10 22:43:00,
2013-12-10 17:53:00,44.0,26.0,30.41,NW,322,8.0,17.0,49,0.00,,,-99.99,72.000000,,2013-12-10 22:53:00,
2013-12-10 18:02:00,44.0,26.0,30.41,NW,322,8.0,17.0,49,0.00,,,-99.99,72.000000,,2013-12-10 23:02:00,
2013-12-10 18:12:00,44.0,26.0,30.41,NW,322,8.0,17.0,49,0.00,,,-99.99,72.000000,,2013-12-10 23:12:00,
2013-12-10 18:43:00,42.0,24.0,30.45,NNW,334,8.0,19.0,49,0.00,,,0.25,0.000000,,2013-12-10 23:43:00,
2013-12-10 18:53:00,42.0,24.0,30.45,NNW,334,8.0,19.0,49,0.00,,,0.25,0.000000,,2013-12-10 23:53:00,
2013-12-10 19:02:00,42.0,24.0,30.45,NNW,334,8.0,19.0,49,0.00,,,0.25,0.000000,,2013-12-11 00:02:00,
2013-12-10 19:12:00,42.0,24.0,30.45,NNW,334,8.0,19.0,49,0.00,,,0.25,0.000000,,2013-12-11 00:12:00,
2013-12-10 19:42:00,37.0,22.0,30.49,NNW,342,6.0,14.0,55,0.00,,,0.25,0.000000,,2013-12-11 00:42:00,
2013-12-10 19:52:00,37.0,22.0,30.49,NNW,342,6.0,14.0,55,0.00,,,0.25,0.000000,,2013-12-11 00:52:00,
2013-12-10 20:01:00,37.0,22.0,30.49,NNW,342,6.0,14.0,55,0.00,,,0.25,0.000000,,2013-12-11 01:01:00,
2013-12-10 20:11:00,37.0,22.0,30.49,NNW,342,6.0,14.0,55,0.00,,,0.25,0.000000,,2013-12-11 01:11:00,
2013-12-10 20:42:00,35.0,23.0,30.51,NNE,22,3.0,11.0,61,0.00,,,0.25,0.000000,,2013-12-11 01:42:00,
2013-12-10 20:52:00,35.0,23.0,30.51,NNE,22,3.0,11.0,61,0.00,,,0.25,0.000000,,2013-12-11 01:52:00,
2013-12-10 21:02:00,35.0,23.0,30.51,NNE,22,3.0,11.0,61,0.00,,,0.25,0.000000,,2013-12-11 02:02:00,
2013-12-10 21:12:00,35.0,23.0,30.51,NNE,22,3.0,11.0,61,0.00,,,0.25,0.000000,,2013-12-11 02:12:00,
2013-12-10 21:42:00,31.0,25.0,30.53,NE,56,2.0,9.0,77,0.00,,,0.25,0.000000,,2013-12-11 02:42:00,
2013-12-10 21:52:00,31.0,25.0,30.53,NE,56,2.0,9.0,77,0.00,,,0.25,0.000000,,2013-12-11 02:52:00,
2013-12-10 22:03:00,31.0,25.0,30.53,NE,56,2.0,9.0,77,0.00,,,0.25,0.000000,,2013-12-11 03:03:00,
2013-12-10 22:11:00,31.0,25.0,30.53,NE,56,2.0,9.0,77,0.00,,,0.25,0.000000,,2013-12-11 03:11:00,
2013-12-10 22:44:00,29.0,25.0,30.54,WSW,251,3.0,7.0,84,0.00,,,0.25,0.000000,,2013-12-11 03:44:00,
2013-12-10 22:54:00,29.0,25.0,30.54,WSW,251,3.0,7.0,84,0.00,,,0.25,0.000000,,2013-12-11 03:54:00,
2013-12-10 23:03:00,29.0,25.0,30.54,WSW,251,3.0,7.0,84,0.00,,,0.25,0.000000,,2013-12-11 04:03:00,
2013-12-10 23:13:00,29.0,25.0,30.54,WSW,251,3.0,7.0,84,0.00,,,0.25,0.000000,,2013-12-11 04:13:00,
2013-12-10 23:43:00,28.0,25.0,30.54,SW,231,3.0,6.0,89,0.00,,,0.25,0.000000,,2013-12-11 04:43:00,
2013-12-10 23:53:00,28.0,25.0,30.54,SW,231,3.0,6.0,89,0.00,,,0.25,0.000000,,2013-12-11 04:53:00,